1918 NOT_NAMED (1918069S14153)


IBTrACS version v04r00. Visit IBTrACS website for data access.
Please direct all questions to the IBTrACS Q and A forum

Storm track - Intensity - Wind Radii - Intensity Data - Source Data - All data

Summary Information

Storm ID 1918069S14153
Start Mar 9 23Z
Landfall Mar 11 23Z
End Mar 13 23Z
ATCF IDs
Track status Best track data.

Storm track plot

Map of storm track

Intensity plots

No Intensity information for this storm


Radial wind information

No radial wind information for this storm


Position and Intensity Table

BASIN ISO_TIME_________ NATURE LAT LON
degrees north degrees east
SP 1918-03-09 23:00:00 NR -13.60 153.40
SP 1918-03-10 00:00:00 NR -13.70 153.21
SP 03:00:00 NR -14.00 152.62
SP 06:00:00 NR -14.30 152.03
SP 09:00:00 NR -14.60 151.42
SP 11:00:00 NR -14.80 151.00
SP 12:00:00 NR -14.90 150.79
SP 15:00:00 NR -15.20 150.14
SP 18:00:00 NR -15.48 149.51
SP 21:00:00 NR -15.74 148.94
SP 23:00:00 NR -15.90 148.60
SP 1918-03-11 00:00:00 NR -15.97 148.46
SP 03:00:00 NR -16.16 148.08
SP 06:00:00 NR -16.33 147.78
SP 09:00:00 NR -16.49 147.49
SP 11:00:00 NR -16.60 147.30
SP 12:00:00 NR -16.66 147.19
SP 15:00:00 NR -16.83 146.85
SP 18:00:00 NR -17.01 146.51
SP 21:00:00 NR -17.18 146.15
SP 23:00:00 NR -17.30 145.90
SP 1918-03-12 00:00:00 NR -17.36 145.78
SP 03:00:00 NR -17.53 145.40
SP 06:00:00 NR -17.71 145.00
SP 09:00:00 NR -17.88 144.59
SP 11:00:00 NR -18.00 144.30
SP 12:00:00 NR -18.04 144.15
SP 15:00:00 NR -18.16 143.67
SP 18:00:00 NR -18.30 143.19
SP 21:00:00 NR -18.50 142.71
SP 23:00:00 NR -18.70 142.40
SP 1918-03-13 00:00:00 NR -18.81 142.24
SP 03:00:00 NR -19.23 141.77
SP 06:00:00 NR -19.75 141.34
SP 09:00:00 NR -20.35 140.99
SP 11:00:00 NR -20.80 140.80
SP 12:00:00 NR -21.04 140.73
SP 15:00:00 NR -21.79 140.58
SP 18:00:00 NR -22.60 140.51
SP 21:00:00 NR -23.43 140.50
SP 23:00:00 NR -24.00 140.50

Source Information

Agency Information
USA
TOKYO
CMA
HKO
NEWDELHI
REUNION
BOM
NADI
WELLINGTON
DS824
TD9636 cons_worldwide_trop_cyclone_18710101-19891231-006:Line=1028
TD9635
NEUMANN
MLC

All available IBTrACS Data

SEASON BASIN SUBBASIN ISO_TIME_________ NATURE LAT LON DIST2LAND LANDFALL IFLAG USA SSHS TD9636 LAT TD9636 LON TD9636 STAGE STORM SPEED STORM DIR
Year degrees north degrees east km km 1 degrees north degrees east kts degrees
1918 SP EA 1918-03-09 23:00:00 NR -13.60 153.40 446 439 __________O___ -1 -13.60 153.40 7 13 242
1918 SP EA 1918-03-10 00:00:00 NR -13.70 153.21 440 430 __________P___ -1 -13.70 153.21 7 13 242
1918 SP EA 03:00:00 NR -14.00 152.62 433 433 __________P___ -1 -14.00 152.62 7 13 242
1918 SP EA 06:00:00 NR -14.30 152.03 437 437 __________P___ -1 -14.30 152.03 7 13 243
1918 SP EA 09:00:00 NR -14.60 151.42 450 447 __________P___ -1 -14.60 151.42 7 13 243
1918 SP EA 11:00:00 NR -14.80 151.00 463 462 __________O___ -1 -14.80 151.00 7 14 244
1918 SP EA 12:00:00 NR -14.90 150.79 472 471 __________P___ -1 -14.90 150.79 7 14 244
1918 SP EA 15:00:00 NR -15.20 150.14 491 419 __________P___ -1 -15.20 150.14 7 14 245
1918 SP EA 18:00:00 NR -15.48 149.51 419 361 __________P___ -1 -15.48 149.51 7 13 245
1918 SP EA 21:00:00 NR -15.74 148.94 351 313 __________P___ -1 -15.74 148.94 7 12 244
1918 SP EA 23:00:00 NR -15.90 148.60 313 299 __________O___ -1 -15.90 148.60 7 10 244
1918 SP EA 1918-03-11 00:00:00 NR -15.97 148.46 299 251 __________P___ -1 -15.97 148.46 7 8 242
1918 SP EA 03:00:00 NR -16.16 148.08 251 217 __________P___ -1 -16.16 148.08 7 7 241
1918 SP EA 06:00:00 NR -16.33 147.78 217 179 __________P___ -1 -16.33 147.78 7 7 240
1918 SP EA 09:00:00 NR -16.49 147.49 179 155 __________P___ -1 -16.49 147.49 7 6 240
1918 SP EA 11:00:00 NR -16.60 147.30 155 145 __________O___ -1 -16.60 147.30 7 7 240
1918 SP EA 12:00:00 NR -16.66 147.19 140 108 __________P___ -1 -16.66 147.19 7 7 242
1918 SP EA 15:00:00 NR -16.83 146.85 108 61 __________P___ -1 -16.83 146.85 7 7 242
1918 SP EA 18:00:00 NR -17.01 146.51 61 24 __________P___ -1 -17.01 146.51 7 8 243
1918 SP EA 21:00:00 NR -17.18 146.15 15 0 __________P___ -1 -17.18 146.15 7 8 243
1918 SP EA 23:00:00 NR -17.30 145.90 0 0 __________O___ -1 -17.30 145.90 7 8 244
1918 SP EA 1918-03-12 00:00:00 NR -17.36 145.78 0 0 __________P___ -1 -17.36 145.78 7 8 244
1918 SP EA 03:00:00 NR -17.53 145.40 0 0 __________P___ -1 -17.53 145.40 7 8 245
1918 SP EA 06:00:00 NR -17.71 145.00 0 0 __________P___ -1 -17.71 145.00 7 8 246
1918 SP EA 09:00:00 NR -17.88 144.59 0 0 __________P___ -1 -17.88 144.59 7 9 246
1918 SP EA 11:00:00 NR -18.00 144.30 0 0 __________O___ -1 -18.00 144.30 7 9 249
1918 SP EA 12:00:00 NR -18.04 144.15 0 0 __________P___ -1 -18.04 144.15 7 9 255
1918 SP EA 15:00:00 NR -18.16 143.67 0 0 __________P___ -1 -18.16 143.67 7 10 254
1918 SP EA 18:00:00 NR -18.30 143.19 0 0 __________P___ -1 -18.30 143.19 7 10 249
1918 SP EA 21:00:00 NR -18.50 142.71 0 0 __________P___ -1 -18.50 142.71 7 10 242
1918 SP EA 23:00:00 NR -18.70 142.40 0 0 __________O___ -1 -18.70 142.40 7 11 235
1918 SP EA 1918-03-13 00:00:00 NR -18.81 142.24 0 0 __________P___ -1 -18.81 142.24 7 12 228
1918 SP EA 03:00:00 NR -19.23 141.77 0 0 __________P___ -1 -19.23 141.77 7 13 222
1918 SP EA 06:00:00 NR -19.75 141.34 0 0 __________P___ -1 -19.75 141.34 7 14 214
1918 SP EA 09:00:00 NR -20.35 140.99 0 0 __________P___ -1 -20.35 140.99 7 14 206
1918 SP EA 11:00:00 NR -20.80 140.80 0 0 __________O___ -1 -20.80 140.80 7 15 199
1918 SP EA 12:00:00 NR -21.04 140.73 0 0 __________P___ -1 -21.04 140.73 7 15 192
1918 SP EA 15:00:00 NR -21.79 140.58 0 0 __________P___ -1 -21.79 140.58 7 16 187
1918 SP EA 18:00:00 NR -22.60 140.51 0 0 __________P___ -1 -22.60 140.51 7 17 183
1918 SP EA 21:00:00 NR -23.43 140.50 0 0 __________P___ -1 -23.43 140.50 7 17 181
1918 SP EA 23:00:00 NR -24.00 140.50 0 __________O___ -1 -24.00 140.50 7 17 177